createdAt,value
2019-05-07T00:00:32.916Z,6.33
2019-05-07T00:03:03.300Z,6.10
2019-05-07T00:05:33.182Z,7.92
2019-05-07T00:08:02.960Z,7.78
2019-05-07T00:10:33.165Z,7.12
2019-05-07T00:13:02.478Z,8.90
2019-05-07T00:15:32.828Z,7.22
2019-05-07T00:18:03.227Z,6.55
2019-05-07T00:20:32.878Z,5.17
2019-05-07T00:23:02.962Z,7.35
2019-05-07T00:25:33.009Z,6.62
2019-05-07T00:28:02.773Z,8.05
2019-05-07T00:30:33.229Z,6.20
2019-05-07T00:33:02.883Z,5.83
2019-05-07T00:35:36.692Z,6.12
2019-05-07T00:38:12.795Z,5.30
2019-05-07T00:40:51.943Z,5.60
2019-05-07T00:43:22.752Z,5.30
2019-05-07T00:45:56.982Z,5.92
2019-05-07T00:48:26.897Z,5.72
2019-05-07T00:50:57.633Z,5.45
2019-05-07T00:53:26.738Z,4.97
2019-05-07T00:55:57.136Z,5.22
2019-05-07T00:58:26.993Z,5.03
2019-05-07T01:00:57.758Z,5.60
2019-05-07T01:03:26.722Z,6.50
2019-05-07T01:05:55.724Z,5.78
2019-05-07T01:08:24.725Z,5.67
2019-05-07T01:10:53.669Z,5.95
2019-05-07T01:13:23.477Z,5.28
2019-05-07T01:15:53.263Z,6.83
2019-05-07T01:18:23.306Z,7.15
2019-05-07T01:20:53.277Z,6.87
2019-05-07T01:23:23.091Z,6.10
2019-05-07T01:25:52.815Z,5.45
2019-05-07T01:28:22.492Z,5.15
2019-05-07T01:30:52.743Z,4.92
2019-05-07T01:33:26.962Z,4.72
2019-05-07T01:36:06.543Z,5.90
2019-05-07T01:38:36.381Z,5.65
2019-05-07T01:41:06.701Z,5.67
2019-05-07T01:43:37.140Z,8.25
2019-05-07T01:46:06.144Z,5.42
2019-05-07T01:48:35.124Z,4.40
2019-05-07T01:51:04.153Z,4.78
2019-05-07T01:53:33.095Z,5.60
2019-05-07T01:56:03.263Z,4.17
2019-05-07T01:58:33.211Z,5.12
2019-05-07T02:01:02.884Z,9.65
2019-05-07T02:03:34.283Z,6.12
2019-05-07T02:06:13.054Z,4.72
2019-05-07T02:09:02.374Z,5.22
2019-05-07T02:11:33.179Z,6.65
2019-05-07T02:14:02.155Z,5.65
2019-05-07T02:16:32.671Z,4.50
2019-05-07T02:19:02.268Z,5.75
2019-05-07T02:21:32.963Z,5.95
2019-05-07T02:24:03.373Z,5.42
2019-05-07T02:26:32.736Z,5.33
2019-05-07T02:29:02.788Z,5.28
2019-05-07T02:31:33.641Z,5.15
2019-05-07T02:34:02.941Z,6.60
2019-05-07T02:36:34.023Z,5.25
2019-05-07T02:39:17.088Z,5.70
2019-05-07T02:41:46.080Z,5.78
2019-05-07T02:44:15.135Z,6.37
2019-05-07T02:46:45.758Z,5.03
2019-05-07T02:49:18.984Z,6.05
2019-05-07T02:51:56.786Z,3.72
2019-05-07T02:54:33.125Z,4.58
2019-05-07T02:57:03.153Z,5.60
2019-05-07T02:59:33.669Z,5.55
2019-05-07T03:02:03.719Z,3.95
2019-05-07T03:04:33.468Z,8.85
2019-05-07T03:07:03.816Z,4.90
2019-05-07T03:09:33.272Z,6.35
2019-05-07T03:12:03.948Z,5.47
2019-05-07T03:14:33.180Z,4.60
2019-05-07T03:17:02.992Z,7.08
2019-05-07T03:19:34.649Z,4.40
2019-05-07T03:22:04.041Z,5.20
2019-05-07T03:24:43.904Z,7.05
2019-05-07T03:27:14.150Z,5.72
2019-05-07T03:29:45.385Z,4.97
2019-05-07T03:32:28.665Z,4.60
2019-05-07T03:35:06.837Z,6.05
2019-05-07T03:37:36.420Z,4.90
2019-05-07T03:40:07.549Z,5.80
2019-05-07T03:42:37.790Z,5.72
2019-05-07T03:45:09.026Z,7.17
2019-05-07T03:47:39.707Z,6.37
2019-05-07T03:50:14.192Z,4.40
2019-05-07T03:52:42.912Z,5.35
2019-05-07T03:55:14.528Z,4.12
2019-05-07T03:57:43.981Z,5.12
2019-05-07T04:00:14.036Z,4.85
2019-05-07T04:02:44.025Z,4.70
2019-05-07T04:05:14.323Z,6.50
2019-05-07T04:07:43.599Z,5.05
2019-05-07T04:10:15.296Z,5.25
2019-05-07T04:12:44.633Z,5.12
2019-05-07T04:15:16.661Z,5.78
2019-05-07T04:17:44.778Z,5.20
2019-05-07T04:20:13.954Z,5.42
2019-05-07T04:22:43.401Z,5.17
2019-05-07T04:25:17.943Z,6.20
2019-05-07T04:27:48.540Z,5.40
2019-05-07T04:30:17.844Z,4.90
2019-05-07T04:32:48.561Z,6.12
2019-05-07T04:35:19.267Z,5.03
2019-05-07T04:37:48.372Z,5.53
2019-05-07T04:40:17.522Z,6.28
2019-05-07T04:42:46.609Z,6.37
2019-05-07T04:45:15.713Z,5.75
2019-05-07T04:47:47.778Z,5.85
2019-05-07T04:50:36.752Z,5.92
2019-05-07T04:52:47.922Z,6.17
2019-05-07T04:55:17.048Z,7.92
2019-05-07T04:57:45.985Z,6.05
2019-05-07T05:00:15.868Z,6.95
2019-05-07T05:02:47.116Z,6.00
2019-05-07T05:05:17.193Z,5.97
2019-05-07T05:07:46.254Z,6.53
2019-05-07T05:10:15.593Z,5.67
2019-05-07T05:12:44.778Z,5.78
2019-05-07T05:15:14.315Z,6.12
2019-05-07T05:17:50.056Z,8.05
2019-05-07T05:20:15.395Z,8.70
2019-05-07T05:22:48.574Z,8.18
2019-05-07T05:25:19.344Z,7.70
2019-05-07T05:27:48.293Z,8.58
2019-05-07T05:30:21.985Z,7.28
2019-05-07T05:32:52.041Z,6.72
2019-05-07T05:35:22.181Z,8.68
2019-05-07T05:37:52.139Z,8.88
2019-05-07T05:40:22.685Z,6.85
2019-05-07T05:43:02.318Z,5.87
2019-05-07T05:45:34.720Z,8.33
2019-05-07T05:48:08.025Z,5.55
2019-05-07T05:50:53.896Z,7.33
2019-05-07T05:53:40.023Z,9.75
2019-05-07T05:56:18.842Z,9.78
2019-05-07T05:59:04.598Z,7.25
2019-05-07T06:01:47.107Z,7.37
2019-05-07T06:04:22.147Z,8.03
2019-05-07T06:07:11.095Z,7.53
2019-05-07T06:09:36.477Z,6.87
2019-05-07T06:12:22.356Z,6.40
2019-05-07T06:14:53.953Z,6.08
2019-05-07T06:17:27.917Z,6.45
2019-05-07T06:19:58.646Z,9.10
2019-05-07T06:22:29.262Z,9.10
2019-05-07T06:25:14.838Z,8.45
2019-05-07T06:27:42.413Z,9.75
2019-05-07T06:30:12.671Z,6.42
2019-05-07T06:32:42.998Z,6.80
2019-05-07T06:35:12.527Z,6.17
2019-05-07T06:37:43.006Z,8.33
2019-05-07T06:40:27.568Z,7.12
2019-05-07T06:43:04.659Z,6.67
2019-05-07T06:45:42.221Z,6.00
2019-05-07T06:48:12.645Z,7.15
2019-05-07T06:50:43.513Z,5.05
2019-05-07T06:53:12.800Z,5.58
2019-05-07T06:55:42.812Z,4.90
2019-05-07T06:58:12.377Z,5.03
2019-05-07T07:00:43.178Z,5.15
2019-05-07T07:03:13.987Z,7.05
2019-05-07T07:05:44.787Z,5.78
2019-05-07T07:08:24.407Z,6.33
2019-05-07T07:11:07.257Z,5.70
2019-05-07T07:13:36.732Z,5.35
2019-05-07T07:16:05.932Z,6.85
2019-05-07T07:18:48.646Z,6.42
2019-05-07T07:21:05.693Z,4.95
2019-05-07T07:23:34.754Z,5.78
2019-05-07T07:26:03.779Z,5.53
2019-05-07T07:28:33.010Z,5.08
2019-05-07T07:31:07.054Z,6.42
2019-05-07T07:33:37.742Z,5.03
2019-05-07T07:36:06.733Z,5.95
2019-05-07T07:38:36.248Z,5.03
2019-05-07T07:41:12.946Z,5.85
2019-05-07T07:43:42.041Z,7.35
2019-05-07T07:46:13.177Z,5.62
2019-05-07T07:48:43.631Z,5.85
2019-05-07T07:51:13.840Z,3.90
2019-05-07T07:53:43.595Z,5.45
2019-05-07T07:56:23.110Z,4.60
2019-05-07T07:59:02.001Z,6.67
2019-05-07T08:01:35.436Z,5.70
2019-05-07T08:04:04.532Z,4.85
2019-05-07T08:06:34.197Z,4.40
2019-05-07T08:09:03.907Z,5.40
2019-05-07T08:11:33.281Z,5.35
2019-05-07T08:14:02.519Z,4.10
2019-05-07T08:16:32.814Z,4.97
2019-05-07T08:19:02.936Z,7.40
2019-05-07T08:21:33.214Z,5.17
2019-05-07T08:24:02.891Z,6.83
2019-05-07T08:26:32.384Z,5.35
2019-05-07T08:29:02.882Z,5.60
2019-05-07T08:31:52.217Z,6.00
2019-05-07T08:34:39.079Z,4.87
2019-05-07T08:37:08.402Z,4.03
2019-05-07T08:39:37.525Z,5.05
2019-05-07T08:42:06.628Z,5.58
2019-05-07T08:44:37.209Z,4.20
2019-05-07T08:47:08.111Z,5.03
2019-05-07T08:49:40.115Z,4.70
2019-05-07T08:52:11.823Z,4.70
2019-05-07T08:54:42.637Z,4.65
2019-05-07T08:57:12.181Z,4.70
2019-05-07T08:59:43.711Z,4.67
2019-05-07T09:02:12.706Z,4.42
2019-05-07T09:04:41.969Z,4.78
2019-05-07T09:07:13.001Z,4.90
2019-05-07T09:09:42.714Z,4.10
2019-05-07T09:12:12.552Z,4.50
2019-05-07T09:14:42.600Z,4.80
2019-05-07T09:17:12.833Z,5.12
2019-05-07T09:19:50.941Z,5.12
2019-05-07T09:22:12.977Z,4.55
2019-05-07T09:24:42.577Z,3.35
2019-05-07T09:27:22.559Z,4.05
2019-05-07T09:29:59.045Z,4.20
2019-05-07T09:32:29.729Z,3.42
2019-05-07T09:35:02.254Z,3.62
2019-05-07T09:37:32.752Z,3.33
2019-05-07T09:40:02.767Z,4.50
2019-05-07T09:42:33.320Z,3.25
2019-05-07T09:45:02.932Z,3.45
2019-05-07T09:47:32.533Z,4.50
2019-05-07T09:50:07.034Z,4.55
2019-05-07T09:52:32.855Z,3.67
2019-05-07T09:55:11.106Z,2.83
2019-05-07T09:57:34.803Z,3.62
2019-05-07T10:00:04.502Z,3.55
2019-05-07T10:02:33.521Z,3.45
2019-05-07T10:05:02.772Z,3.67
2019-05-07T10:07:32.459Z,4.00
2019-05-07T10:10:03.270Z,3.05
2019-05-07T10:12:34.102Z,4.15
2019-05-07T10:15:03.585Z,3.47
2019-05-07T10:17:34.433Z,4.70
2019-05-07T10:20:18.252Z,3.10
2019-05-07T10:22:35.577Z,2.60
2019-05-07T10:25:06.742Z,4.20
2019-05-07T10:27:38.004Z,5.42
2019-05-07T10:30:07.669Z,4.12
2019-05-07T10:32:36.849Z,4.75
2019-05-07T10:35:07.537Z,3.77
2019-05-07T10:37:36.625Z,4.35
2019-05-07T10:40:12.070Z,3.25
2019-05-07T10:42:42.779Z,3.15
2019-05-07T10:45:13.820Z,4.30
2019-05-07T10:47:45.460Z,4.08
2019-05-07T10:50:34.542Z,3.27
2019-05-07T10:52:52.655Z,5.42
2019-05-07T10:55:22.242Z,4.35
2019-05-07T10:57:52.863Z,4.22
2019-05-07T11:00:25.234Z,5.55
2019-05-07T11:02:54.433Z,4.67
2019-05-07T11:05:23.482Z,2.80
2019-05-07T11:07:53.889Z,3.10
2019-05-07T11:10:23.838Z,3.55
2019-05-07T11:12:53.133Z,3.37
2019-05-07T11:15:22.268Z,3.50
2019-05-07T11:18:04.906Z,2.87
2019-05-07T11:20:46.487Z,3.10
2019-05-07T11:23:04.708Z,3.30
2019-05-07T11:25:33.825Z,4.12
2019-05-07T11:28:03.025Z,4.08
2019-05-07T11:30:32.175Z,3.30
2019-05-07T11:33:02.700Z,3.85
2019-05-07T11:35:32.147Z,2.72
2019-05-07T11:38:10.937Z,4.87
2019-05-07T11:40:34.860Z,3.08
2019-05-07T11:43:13.556Z,1.87
2019-05-07T11:46:01.978Z,2.20
2019-05-07T11:48:33.552Z,2.20
2019-05-07T11:51:09.647Z,2.33
2019-05-07T11:53:41.888Z,3.15
2019-05-07T11:56:11.772Z,2.22
2019-05-07T11:58:41.014Z,2.17
2019-05-07T12:01:15.247Z,1.75
2019-05-07T12:03:44.233Z,1.70
2019-05-07T12:06:13.148Z,1.65
2019-05-07T12:08:49.808Z,2.05
2019-05-07T12:11:13.025Z,1.70
2019-05-07T12:13:42.779Z,2.80
2019-05-07T12:16:14.091Z,3.62
2019-05-07T12:18:43.165Z,3.05
2019-05-07T12:21:20.709Z,2.77
2019-05-07T12:23:43.302Z,2.10
2019-05-07T12:26:12.696Z,1.80
2019-05-07T12:28:42.042Z,1.82
2019-05-07T12:31:15.625Z,2.27
2019-05-07T12:33:52.300Z,2.17
2019-05-07T12:36:22.706Z,2.62
2019-05-07T12:38:53.308Z,2.22
2019-05-07T12:41:33.882Z,1.45
2019-05-07T12:44:05.780Z,1.55
2019-05-07T12:46:35.081Z,1.52
2019-05-07T12:49:04.680Z,1.50
2019-05-07T12:51:37.785Z,2.58
2019-05-07T12:54:12.698Z,2.80
2019-05-07T12:56:42.655Z,3.52
2019-05-07T12:59:12.810Z,1.70
2019-05-07T13:02:00.045Z,1.57
2019-05-07T13:04:32.493Z,2.65
2019-05-07T13:07:12.307Z,1.70
2019-05-07T13:09:42.755Z,1.57
2019-05-07T13:12:11.977Z,1.50
2019-05-07T13:14:40.933Z,1.85
2019-05-07T13:17:11.965Z,2.05
2019-05-07T13:19:41.984Z,1.50
2019-05-07T13:22:13.041Z,2.58
2019-05-07T13:24:42.624Z,3.35
2019-05-07T13:27:12.096Z,1.52
2019-05-07T13:29:42.454Z,1.72
2019-05-07T13:32:13.933Z,3.65
2019-05-07T13:34:43.747Z,3.05
2019-05-07T13:37:15.103Z,1.82
2019-05-07T13:39:46.586Z,1.67
2019-05-07T13:42:34.066Z,1.65
2019-05-07T13:45:05.137Z,1.70
2019-05-07T13:47:35.963Z,1.60
2019-05-07T13:50:07.781Z,1.50
2019-05-07T13:52:37.222Z,1.75
2019-05-07T13:55:07.698Z,1.82
2019-05-07T13:57:36.946Z,2.45
2019-05-07T14:00:09.707Z,2.87
2019-05-07T14:02:39.074Z,1.52
2019-05-07T14:05:08.445Z,2.40
2019-05-07T14:07:41.551Z,2.05
2019-05-07T14:10:12.422Z,1.72
2019-05-07T14:12:48.180Z,2.08
2019-05-07T14:15:17.922Z,1.72
2019-05-07T14:17:47.125Z,1.60
2019-05-07T14:20:16.344Z,2.27
2019-05-07T14:22:45.367Z,2.00
2019-05-07T14:25:15.547Z,3.22
2019-05-07T14:27:44.679Z,1.92
2019-05-07T14:30:14.420Z,2.15
2019-05-07T14:32:54.126Z,1.55
2019-05-07T14:35:25.077Z,1.60
2019-05-07T14:37:58.831Z,2.47
2019-05-07T14:40:27.989Z,3.92
2019-05-07T14:43:07.759Z,2.05
2019-05-07T14:45:36.843Z,1.80
2019-05-07T14:48:07.139Z,3.10
2019-05-07T14:50:36.076Z,2.08
2019-05-07T14:53:05.302Z,1.70
2019-05-07T14:55:34.385Z,2.08
2019-05-07T14:58:03.794Z,1.92
2019-05-07T15:00:35.167Z,2.65
2019-05-07T15:03:03.995Z,2.00
2019-05-07T15:05:32.955Z,2.10
2019-05-07T15:08:10.665Z,1.85
2019-05-07T15:10:32.864Z,2.58
2019-05-07T15:13:02.331Z,2.42
2019-05-07T15:15:31.488Z,1.67
2019-05-07T15:18:02.151Z,2.25
2019-05-07T15:20:33.031Z,2.65
2019-05-07T15:23:04.666Z,1.98
2019-05-07T15:25:33.872Z,2.25
2019-05-07T15:28:03.048Z,2.70
2019-05-07T15:30:41.775Z,2.15
2019-05-07T15:33:12.707Z,1.90
2019-05-07T15:35:42.478Z,2.98
2019-05-07T15:38:11.758Z,3.02
2019-05-07T15:40:42.292Z,2.62
2019-05-07T15:43:12.838Z,2.45
2019-05-07T15:45:42.231Z,2.33
2019-05-07T15:48:12.668Z,2.00
2019-05-07T15:50:42.929Z,2.20
2019-05-07T15:53:21.835Z,1.90
2019-05-07T15:55:52.290Z,4.85
2019-05-07T15:58:22.699Z,2.10
2019-05-07T16:00:51.920Z,2.83
2019-05-07T16:03:38.894Z,2.47
2019-05-07T16:06:07.997Z,3.22
2019-05-07T16:08:38.659Z,3.87
2019-05-07T16:11:07.697Z,2.58
2019-05-07T16:13:38.295Z,3.72
2019-05-07T16:16:07.395Z,2.33
2019-05-07T16:18:54.828Z,3.02
2019-05-07T16:21:23.921Z,2.58
2019-05-07T16:23:54.787Z,3.00
2019-05-07T16:26:23.897Z,2.30
2019-05-07T16:28:53.394Z,2.20
2019-05-07T16:31:24.617Z,2.95
2019-05-07T16:33:53.254Z,2.20
2019-05-07T16:36:22.553Z,2.20
2019-05-07T16:38:52.706Z,1.87
2019-05-07T16:41:22.448Z,5.75
2019-05-07T16:43:52.412Z,2.55
2019-05-07T16:46:22.386Z,3.22
2019-05-07T16:48:51.809Z,3.65
2019-05-07T16:51:22.313Z,2.30
2019-05-07T16:53:52.402Z,2.27
2019-05-07T16:56:22.691Z,2.70
2019-05-07T16:58:53.513Z,2.37
2019-05-07T17:01:24.655Z,2.92
2019-05-07T17:03:55.337Z,2.77
2019-05-07T17:06:25.089Z,2.08
2019-05-07T17:08:56.102Z,2.50
2019-05-07T17:11:25.112Z,2.92
2019-05-07T17:13:54.169Z,2.30
2019-05-07T17:16:23.421Z,3.30
2019-05-07T17:18:52.496Z,2.67
2019-05-07T17:21:22.022Z,2.92
2019-05-07T17:23:51.917Z,3.52
2019-05-07T17:26:23.042Z,2.65
2019-05-07T17:28:52.160Z,3.80
2019-05-07T17:31:22.866Z,2.87
2019-05-07T17:33:52.019Z,2.60
2019-05-07T17:36:22.459Z,2.80
2019-05-07T17:38:52.056Z,4.85
2019-05-07T17:41:26.184Z,3.17
2019-05-07T17:43:52.262Z,4.15
2019-05-07T17:46:21.694Z,2.77
2019-05-07T17:48:52.439Z,2.95
2019-05-07T17:51:42.188Z,3.22
2019-05-07T17:54:13.167Z,3.35
2019-05-07T17:56:44.460Z,3.95
2019-05-07T17:59:13.540Z,2.80
2019-05-07T18:01:50.016Z,3.85
2019-05-07T18:04:17.744Z,6.55
2019-05-07T18:06:46.762Z,3.80
2019-05-07T18:09:15.798Z,3.40
2019-05-07T18:11:44.828Z,4.25
2019-05-07T18:14:13.959Z,3.75
2019-05-07T18:16:53.363Z,3.47
2019-05-07T18:19:22.499Z,3.33
2019-05-07T18:21:52.441Z,3.05
2019-05-07T18:24:22.376Z,3.50
2019-05-07T18:26:52.621Z,2.83
2019-05-07T18:29:22.455Z,3.22
2019-05-07T18:31:53.793Z,4.00
2019-05-07T18:34:23.030Z,2.95
2019-05-07T18:36:53.034Z,3.70
2019-05-07T18:39:22.392Z,3.02
2019-05-07T18:41:52.343Z,3.37
2019-05-07T18:44:22.381Z,4.20
2019-05-07T18:46:52.832Z,5.30
2019-05-07T18:49:22.232Z,4.15
2019-05-07T18:51:52.185Z,4.50
2019-05-07T18:54:30.565Z,4.15
2019-05-07T18:56:52.872Z,5.10
2019-05-07T18:59:23.695Z,4.70
2019-05-07T19:01:52.815Z,4.15
2019-05-07T19:04:22.134Z,4.72
2019-05-07T19:06:51.806Z,5.62
2019-05-07T19:09:22.470Z,7.20
2019-05-07T19:11:52.286Z,5.03
2019-05-07T19:14:22.670Z,4.55
2019-05-07T19:16:52.707Z,5.67
2019-05-07T19:19:22.248Z,5.05
2019-05-07T19:21:52.985Z,5.55
2019-05-07T19:24:26.045Z,5.70
2019-05-07T19:26:53.117Z,5.12
2019-05-07T19:29:23.327Z,6.58
2019-05-07T19:31:53.875Z,6.25
2019-05-07T19:34:22.966Z,6.40
2019-05-07T19:36:52.533Z,8.23
2019-05-07T19:39:23.433Z,5.87
2019-05-07T19:41:52.724Z,6.08
2019-05-07T19:44:21.967Z,4.75
2019-05-07T19:46:52.468Z,4.58
2019-05-07T19:49:21.697Z,4.53
2019-05-07T19:51:52.366Z,6.30
2019-05-07T19:54:22.837Z,5.30
2019-05-07T19:56:52.088Z,7.47
2019-05-07T19:59:22.224Z,7.28
2019-05-07T20:01:53.143Z,5.35
2019-05-07T20:04:22.344Z,5.58
2019-05-07T20:06:52.311Z,6.05
2019-05-07T20:09:23.066Z,5.15
2019-05-07T20:11:52.429Z,6.53
2019-05-07T20:14:22.412Z,4.75
2019-05-07T20:16:53.140Z,6.58
2019-05-07T20:19:23.090Z,4.58
2019-05-07T20:21:52.464Z,5.80
2019-05-07T20:24:22.090Z,5.40
2019-05-07T20:26:52.615Z,6.95
2019-05-07T20:29:22.936Z,4.65
2019-05-07T20:31:53.226Z,3.95
2019-05-07T20:34:23.128Z,6.25
2019-05-07T20:36:52.162Z,4.15
2019-05-07T20:39:23.301Z,5.15
2019-05-07T20:41:52.626Z,4.97
2019-05-07T20:44:21.949Z,5.78
2019-05-07T20:46:53.408Z,5.62
2019-05-07T20:49:22.530Z,5.37
2019-05-07T20:51:52.647Z,5.72
2019-05-07T20:54:29.275Z,9.33
2019-05-07T20:57:05.641Z,4.62
2019-05-07T20:59:34.772Z,6.42
2019-05-07T21:02:05.010Z,6.40
2019-05-07T21:04:35.461Z,5.87
2019-05-07T21:07:04.545Z,6.17
2019-05-07T21:09:33.751Z,5.67
2019-05-07T21:12:02.823Z,6.28
2019-05-07T21:14:32.566Z,6.85
2019-05-07T21:17:01.997Z,6.20
2019-05-07T21:19:33.177Z,5.08
2019-05-07T21:22:02.182Z,5.72
2019-05-07T21:24:33.119Z,6.70
2019-05-07T21:27:02.606Z,5.58
2019-05-07T21:29:32.679Z,7.45
2019-05-07T21:32:03.275Z,4.42
2019-05-07T21:34:32.719Z,4.78
2019-05-07T21:37:03.258Z,5.28
2019-05-07T21:39:33.130Z,5.83
2019-05-07T21:42:02.413Z,4.47
2019-05-07T21:44:32.597Z,5.05
2019-05-07T21:47:03.856Z,4.55
2019-05-07T21:49:32.610Z,4.97
2019-05-07T21:52:02.060Z,5.35
2019-05-07T21:54:35.887Z,6.85
2019-05-07T21:57:12.875Z,4.03
2019-05-07T21:59:43.263Z,4.05
2019-05-07T22:02:23.386Z,4.90
2019-05-07T22:04:52.891Z,4.00
2019-05-07T22:07:22.773Z,5.22
2019-05-07T22:09:54.372Z,4.37
2019-05-07T22:12:24.195Z,5.08
2019-05-07T22:14:53.418Z,5.37
2019-05-07T22:17:22.571Z,4.22
2019-05-07T22:19:52.513Z,5.17
2019-05-07T22:22:24.150Z,5.17
2019-05-07T22:24:53.184Z,5.65
2019-05-07T22:27:22.490Z,8.10
2019-05-07T22:29:52.716Z,6.35
2019-05-07T22:32:23.589Z,5.30
2019-05-07T22:35:02.966Z,6.05
2019-05-07T22:37:32.508Z,6.65
2019-05-07T22:40:02.758Z,5.60
2019-05-07T22:42:32.718Z,5.92
2019-05-07T22:45:02.839Z,5.47
2019-05-07T22:47:32.633Z,6.78
2019-05-07T22:50:02.796Z,5.60
2019-05-07T22:52:32.664Z,6.45
2019-05-07T22:55:02.042Z,7.55
2019-05-07T22:57:32.772Z,5.92
2019-05-07T23:00:04.522Z,7.12
2019-05-07T23:02:32.945Z,4.92
2019-05-07T23:05:02.872Z,6.80
2019-05-07T23:07:32.856Z,6.47
2019-05-07T23:10:02.884Z,7.05
2019-05-07T23:12:32.711Z,8.28
2019-05-07T23:15:02.699Z,6.10
2019-05-07T23:17:32.669Z,6.20
2019-05-07T23:20:01.900Z,7.95
2019-05-07T23:22:32.419Z,6.45
2019-05-07T23:25:01.717Z,7.60
2019-05-07T23:27:32.537Z,6.95
2019-05-07T23:30:02.603Z,6.70
2019-05-07T23:32:32.959Z,7.90
2019-05-07T23:35:02.363Z,7.95
2019-05-07T23:37:33.122Z,7.05
2019-05-07T23:40:20.409Z,7.78
2019-05-07T23:42:52.158Z,6.50
2019-05-07T23:45:22.123Z,8.18
2019-05-07T23:47:51.891Z,7.92
2019-05-07T23:50:21.137Z,7.37
2019-05-07T23:52:50.201Z,8.45
2019-05-07T23:55:19.455Z,7.30
2019-05-07T23:57:48.483Z,6.50
